Time;durP1;ratioP1;P1;durP2;ratioP2;P2;SDS_P1;SDS_P2;PMS_P1;PMS_P2;Temp;Humidity;BMP_temperature;BMP_pressure;BME280_temperature;BME280_humidity;BME280_pressure;Samples;Min_cycle;Max_cycle;Signal;HPM_P1;HPM_P2
2022/11/27 00:00:24;;;;;;;13.30;1.55;;;6.70;99.90;;;;;;5074624;28;20028;-76
2022/11/27 00:02:50;;;;;;;7.65;1.38;;;6.70;99.90;;;;;;5075103;28;20021;-76
2022/11/27 00:05:15;;;;;;;14.48;1.77;;;6.60;99.90;;;;;;5056522;28;20017;-76
2022/11/27 00:07:41;;;;;;;12.50;1.65;;;6.60;99.90;;;;;;5075416;28;20514;-76
2022/11/27 00:10:07;;;;;;;9.95;1.90;;;6.60;99.90;;;;;;5056756;28;20035;-76
2022/11/27 00:12:33;;;;;;;11.07;1.52;;;6.60;99.90;;;;;;5057224;28;20024;-76
2022/11/27 00:14:59;;;;;;;10.25;1.63;;;6.50;99.90;;;;;;5075103;28;20023;-77
2022/11/27 00:17:24;;;;;;;8.77;1.05;;;6.40;99.90;;;;;;5056885;28;20116;-77
2022/11/27 00:19:50;;;;;;;4.90;0.73;;;6.40;99.90;;;;;;5075029;28;20052;-77
2022/11/27 00:22:16;;;;;;;7.95;0.90;;;6.50;99.90;;;;;;5075026;28;20020;-77
2022/11/27 00:24:43;;;;;;;8.48;0.90;;;6.40;99.90;;;;;;5057156;28;20017;-77
2022/11/27 00:27:09;;;;;;;7.13;1.48;;;6.30;99.90;;;;;;5056790;28;20051;-77
2022/11/27 00:29:35;;;;;;;5.70;0.70;;;6.40;99.90;;;;;;5056425;28;20118;-77
2022/11/27 00:32:00;;;;;;;6.10;1.30;;;6.40;99.90;;;;;;5056916;28;20518;-77
2022/11/27 00:34:26;;;;;;;9.85;1.33;;;6.40;99.90;;;;;;5074737;28;20100;-77
2022/11/27 00:36:52;;;;;;;8.77;1.00;;;6.40;99.90;;;;;;5056709;28;20434;-77
2022/11/27 00:39:17;;;;;;;4.50;0.60;;;6.40;99.90;;;;;;5056721;28;20024;-77
2022/11/27 00:41:43;;;;;;;10.48;1.33;;;6.40;99.90;;;;;;5074480;28;20021;-77
2022/11/27 00:44:11;;;;;;;6.85;0.52;;;7.30;99.90;;;;;;5056574;28;20154;-77
2022/11/27 00:49:12;;;;;;;6.75;1.23;;;6.40;99.90;;;;;;5033283;28;20042;-77
2022/11/27 00:51:38;;;;;;;7.05;0.70;;;6.30;99.90;;;;;;5016912;28;20468;-77
2022/11/27 00:54:04;;;;;;;6.25;0.82;;;6.30;99.90;;;;;;5016463;28;20022;-77
2022/11/27 00:56:35;;;;;;;3.70;0.63;;;6.40;99.90;;;;;;5034433;28;20022;-77
2022/11/27 00:59:00;;;;;;;4.70;0.80;;;6.40;99.90;;;;;;5016920;28;20029;-76
2022/11/27 01:01:32;;;;;;;6.75;1.08;;;6.40;99.90;;;;;;5016673;28;20029;-77
2022/11/27 01:03:59;;;;;;;4.88;1.27;;;6.40;99.90;;;;;;5034897;28;20022;-77
2022/11/27 01:06:26;;;;;;;5.75;0.77;;;6.40;99.90;;;;;;5016561;28;20033;-77
2022/11/27 01:08:51;;;;;;;5.25;1.10;;;6.40;99.90;;;;;;5033636;28;20052;-77
2022/11/27 01:11:22;;;;;;;8.35;1.15;;;6.40;99.90;;;;;;5016255;28;20013;-77
2022/11/27 01:13:47;;;;;;;11.85;2.10;;;6.40;99.90;;;;;;5034052;28;20109;-77
2022/11/27 01:16:16;;;;;;;5.82;1.10;;;7.80;99.90;;;;;;5033755;28;20565;-78
2022/11/27 01:18:42;;;;;;;;;;;6.50;99.90;;;;;;5016842;28;20022;-77
2022/11/27 01:21:09;;;;;;;6.13;0.65;;;7.40;99.90;;;;;;5033885;28;19959;-77
2022/11/27 01:23:37;;;;;;;10.57;1.48;;;6.60;99.90;;;;;;5015890;28;20392;-77
2022/11/27 01:26:04;;;;;;;8.57;0.90;;;6.50;99.90;;;;;;5015765;28;20025;-77
2022/11/27 01:28:31;;;;;;;6.28;0.75;;;6.50;99.90;;;;;;5016227;28;20018;-77
2022/11/27 01:30:57;;;;;;;8.68;0.50;;;6.60;99.90;;;;;;5016165;28;20021;-77
2022/11/27 01:33:23;;;;;;;7.88;1.02;;;6.60;99.90;;;;;;5033588;28;20030;-77
2022/11/27 01:35:53;;;;;;;14.32;1.13;;;6.50;99.90;;;;;;5033533;28;20029;-78
2022/11/27 01:38:19;;;;;;;10.55;0.70;;;6.50;99.90;;;;;;5033917;28;20387;-77
2022/11/27 01:40:44;;;;;;;9.02;2.30;;;6.60;99.90;;;;;;5016187;28;20105;-77
2022/11/27 01:43:14;;;;;;;4.85;0.52;;;6.60;99.90;;;;;;5032508;28;20451;-76
2022/11/27 01:45:40;;;;;;;6.25;0.52;;;6.50;99.90;;;;;;5032253;28;20021;-76
2022/11/27 01:48:07;;;;;;;8.27;1.13;;;6.60;99.90;;;;;;5015798;28;20091;-77
2022/11/27 01:50:38;;;;;;;4.18;0.93;;;6.50;99.90;;;;;;5033473;28;20025;-77
2022/11/27 01:53:15;;;;;;;7.75;0.93;;;6.50;99.90;;;;;;5033586;28;20028;-77
2022/11/27 01:55:53;;;;;;;5.97;1.27;;;6.50;99.90;;;;;;5015748;28;20112;-77
2022/11/27 01:58:26;;;;;;;11.65;1.27;;;6.40;99.90;;;;;;5033427;28;20029;-77
2022/11/27 02:00:52;;;;;;;6.53;0.50;;;6.40;99.90;;;;;;5015937;28;20112;-77
2022/11/27 02:03:18;;;;;;;5.82;0.45;;;6.40;99.90;;;;;;5032648;28;20455;-77
2022/11/27 02:05:43;;;;;;;9.27;0.88;;;6.40;99.90;;;;;;5015450;28;20033;-77
2022/11/27 02:08:13;;;;;;;6.10;0.60;;;6.40;99.90;;;;;;5033774;28;20018;-76
2022/11/27 02:11:05;;;;;;;6.82;1.13;;;6.30;99.90;;;;;;5033457;28;20025;-76
2022/11/27 02:13:37;;;;;;;6.85;0.40;;;6.30;99.90;;;;;;5023212;28;20042;-76
2022/11/27 02:16:14;;;;;;;8.60;0.63;;;6.20;99.90;;;;;;5033305;28;20107;-76
2022/11/27 02:19:01;;;;;;;4.85;0.82;;;6.20;99.90;;;;;;5032138;28;20030;-76
2022/11/27 02:21:53;;;;;;;11.65;0.70;;;6.20;99.90;;;;;;5034074;28;20037;-76
2022/11/27 02:24:37;;;;;;;5.25;0.43;;;6.20;99.90;;;;;;5033381;28;20044;-77
2022/11/27 02:27:44;;;;;;;3.88;0.25;;;6.20;99.90;;;;;;5032017;28;20029;-77
2022/11/27 02:30:11;;;;;;;7.50;0.40;;;6.20;99.90;;;;;;5015367;28;20033;-77
2022/11/27 02:32:50;;;;;;;11.05;0.75;;;6.20;99.90;;;;;;5033041;28;20100;-74
2022/11/27 02:35:22;;;;;;;4.03;0.95;;;6.20;99.90;;;;;;5018995;28;20025;-74
2022/11/27 02:38:31;;;;;;;9.25;1.13;;;6.20;99.90;;;;;;5037023;28;20392;-74
2022/11/27 02:41:08;;;;;;;5.35;0.82;;;6.20;99.90;;;;;;4982623;28;20123;-74
2022/11/27 02:43:41;;;;;;;10.18;1.83;;;6.20;99.90;;;;;;5036779;28;20022;-74
2022/11/27 02:46:09;;;;;;;8.55;0.45;;;6.20;99.90;;;;;;5018310;28;20048;-75
2022/11/27 02:48:51;;;;;;;4.20;0.95;;;6.20;99.90;;;;;;5037040;28;20517;-74
2022/11/27 02:51:26;;;;;;;5.55;0.68;;;6.20;99.90;;;;;;5036627;28;20029;-75
2022/11/27 02:53:59;;;;;;;10.57;1.23;;;6.20;99.90;;;;;;5036819;28;20028;-74
2022/11/27 02:56:27;;;;;;;8.05;1.60;;;6.20;99.90;;;;;;5036578;28;20029;-74
2022/11/27 02:58:58;;;;;;;6.55;1.23;;;6.10;99.90;;;;;;5019560;28;20025;-74
2022/11/27 03:01:28;;;;;;;9.13;0.77;;;6.10;99.90;;;;;;5037844;28;20075;-74
2022/11/27 03:03:56;;;;;;;8.45;1.65;;;6.10;99.90;;;;;;5037058;28;20075;-74
2022/11/27 03:06:28;;;;;;;8.48;1.88;;;6.00;99.90;;;;;;5036756;28;20439;-74
2022/11/27 03:09:12;;;;;;;15.68;2.65;;;6.10;99.90;;;;;;5037260;28;20364;-74
2022/11/27 03:11:38;;;;;;;10.70;1.60;;;6.10;99.90;;;;;;5018916;28;20026;-74
2022/11/27 03:14:07;;;;;;;4.70;1.27;;;6.10;99.90;;;;;;5035737;28;20436;-74
2022/11/27 03:16:41;;;;;;;5.93;1.23;;;6.10;99.90;;;;;;5036189;28;20072;-74
2022/11/27 03:19:21;;;;;;;9.75;1.45;;;6.00;99.90;;;;;;5036517;28;20064;-74
2022/11/27 03:21:59;;;;;;;12.80;1.88;;;6.00;99.90;;;;;;5018342;28;20057;-74
2022/11/27 03:24:26;;;;;;;7.97;2.03;;;6.00;99.90;;;;;;5036042;28;20033;-74
2022/11/27 03:26:52;;;;;;;11.02;1.70;;;6.00;99.90;;;;;;5017791;28;20075;-74
2022/11/27 03:29:27;;;;;;;8.63;1.33;;;6.00;99.90;;;;;;5018366;28;20138;-74
2022/11/27 03:31:55;;;;;;;8.82;1.40;;;6.00;99.90;;;;;;5018371;28;20049;-74
2022/11/27 03:34:21;;;;;;;10.68;1.85;;;6.00;99.90;;;;;;5036325;28;20026;-74
2022/11/27 03:36:46;;;;;;;10.85;1.90;;;6.00;99.90;;;;;;5036228;28;20036;-74
2022/11/27 03:39:12;;;;;;;13.52;2.17;;;6.00;99.90;;;;;;5035750;28;20018;-75
2022/11/27 03:41:52;;;;;;;12.77;2.38;;;6.00;99.90;;;;;;5036116;28;20507;-74
2022/11/27 03:44:40;;;;;;;11.70;1.00;;;6.00;99.90;;;;;;5036281;28;20021;-74
2022/11/27 03:47:06;;;;;;;7.35;1.33;;;;;;;;;;5035293;28;20049;-74
2022/11/27 03:50:06;;;;;;;4.97;1.70;;;6.00;99.90;;;;;;5034451;28;20400;-74
2022/11/27 03:52:48;;;;;;;9.18;1.40;;;6.00;99.90;;;;;;5034186;28;20503;-74
2022/11/27 03:55:46;;;;;;;7.50;1.20;;;6.00;99.90;;;;;;5016195;28;20037;-74
2022/11/27 03:58:22;;;;;;;8.87;1.23;;;6.10;99.90;;;;;;4996508;28;20473;-74
2022/11/27 04:00:49;;;;;;;7.55;1.48;;;6.10;99.90;;;;;;4997828;28;20124;-74
2022/11/27 04:03:24;;;;;;;5.78;0.73;;;6.10;99.90;;;;;;5002727;28;20089;-75
2022/11/27 04:05:50;;;;;;;10.70;1.52;;;6.00;99.90;;;;;;5033502;28;20041;-74
2022/11/27 04:08:16;;;;;;;7.38;1.52;;;6.10;99.90;;;;;;5035028;28;20102;-74
2022/11/27 04:10:41;;;;;;;10.02;1.52;;;6.00;99.90;;;;;;5017255;28;20532;-74
2022/11/27 04:13:07;;;;;;;8.48;0.90;;;6.00;99.90;;;;;;5017121;28;20481;-74
2022/11/27 04:15:32;;;;;;;6.13;1.23;;;6.00;99.90;;;;;;5034864;28;20025;-74
2022/11/27 04:17:58;;;;;;;9.85;1.52;;;6.00;99.90;;;;;;5033510;28;20033;-74
2022/11/27 04:20:24;;;;;;;12.07;1.15;;;6.00;99.90;;;;;;5033766;28;20037;-74
2022/11/27 04:22:49;;;;;;;7.45;1.65;;;6.00;99.90;;;;;;5033533;28;20022;-74
2022/11/27 04:25:15;;;;;;;8.18;1.13;;;6.10;99.90;;;;;;5016769;28;20029;-74
2022/11/27 04:27:40;;;;;;;7.80;1.55;;;6.10;99.90;;;;;;5016888;28;20075;-74
2022/11/27 04:30:07;;;;;;;7.70;1.70;;;6.10;99.90;;;;;;5034655;28;20093;-74
2022/11/27 04:32:32;;;;;;;4.80;1.35;;;6.10;99.90;;;;;;5016582;28;20036;-74
2022/11/27 04:34:58;;;;;;;6.20;1.23;;;6.10;99.90;;;;;;5035225;28;20476;-74
2022/11/27 04:37:23;;;;;;;6.10;1.67;;;6.10;99.90;;;;;;5033532;28;20030;-74
2022/11/27 04:39:49;;;;;;;4.72;1.40;;;6.00;99.90;;;;;;5035237;28;20048;-74
2022/11/27 04:42:14;;;;;;;10.50;1.67;;;6.00;99.90;;;;;;5034793;28;20466;-74
2022/11/27 04:44:40;;;;;;;11.60;2.60;;;6.00;99.90;;;;;;5034351;28;20029;-74
2022/11/27 04:47:08;;;;;;;6.25;1.75;;;6.00;99.90;;;;;;5033601;28;20059;-74
2022/11/27 04:49:34;;;;;;;8.63;1.73;;;6.10;99.90;;;;;;5034436;28;20495;-75
2022/11/27 04:52:00;;;;;;;5.95;1.50;;;6.00;99.90;;;;;;5033069;28;20048;-74
2022/11/27 04:54:25;;;;;;;5.18;1.15;;;6.00;99.90;;;;;;5016421;28;20025;-74
2022/11/27 04:56:51;;;;;;;7.47;1.27;;;6.00;99.90;;;;;;5032825;28;20139;-74
2022/11/27 04:59:16;;;;;;;11.25;2.00;;;6.00;99.90;;;;;;5016474;28;20028;-74
2022/11/27 05:01:42;;;;;;;12.45;2.13;;;5.90;99.90;;;;;;5033897;28;20049;-74
2022/11/27 05:04:07;;;;;;;6.22;1.58;;;5.90;99.90;;;;;;5032875;28;20068;-74
2022/11/27 05:06:33;;;;;;;4.35;1.35;;;5.80;99.90;;;;;;5032565;28;20029;-74
2022/11/27 05:09:00;;;;;;;9.27;1.83;;;5.90;99.90;;;;;;5033955;28;20075;-74
2022/11/27 05:11:28;;;;;;;5.75;1.50;;;5.90;99.90;;;;;;5034000;28;20104;-74
2022/11/27 05:14:13;;;;;;;7.82;1.50;;;5.90;99.90;;;;;;5033795;28;20110;-74
2022/11/27 05:16:40;;;;;;;8.57;1.27;;;5.90;99.90;;;;;;5015898;28;20076;-74
2022/11/27 05:19:06;;;;;;;6.57;1.20;;;5.90;99.90;;;;;;5033828;28;20029;-74
2022/11/27 05:21:31;;;;;;;8.25;1.10;;;5.90;99.90;;;;;;5016159;28;20026;-74
2022/11/27 05:23:57;;;;;;;6.43;1.10;;;7.90;99.90;;;;;;5033871;28;20025;-74
2022/11/27 05:26:23;;;;;;;8.25;1.38;;;;;;;;;;5033648;28;20036;-74
2022/11/27 05:28:48;;;;;;;6.13;1.35;;;5.90;99.90;;;;;;5033616;28;20025;-74
2022/11/27 05:31:14;;;;;;;8.48;1.48;;;5.90;99.90;;;;;;5032242;28;20049;-74
2022/11/27 05:33:40;;;;;;;5.43;0.73;;;6.00;99.90;;;;;;5033985;28;20029;-74
2022/11/27 05:36:05;;;;;;;8.45;1.55;;;6.00;99.90;;;;;;5034066;28;20033;-74
2022/11/27 05:38:31;;;;;;;3.13;1.00;;;6.00;99.90;;;;;;5032380;28;20022;-74
2022/11/27 05:40:56;;;;;;;4.05;0.95;;;6.00;99.90;;;;;;5033603;28;20427;-74
2022/11/27 05:43:22;;;;;;;8.90;1.08;;;6.00;99.90;;;;;;5032147;28;20037;-74
2022/11/27 05:45:47;;;;;;;8.30;1.73;;;6.00;99.90;;;;;;5031833;28;20030;-74
2022/11/27 05:48:13;;;;;;;6.55;1.80;;;6.00;99.90;;;;;;5032147;28;20029;-74
2022/11/27 05:50:39;;;;;;;5.25;1.23;;;6.00;99.90;;;;;;5032197;28;20029;-74
2022/11/27 05:53:04;;;;;;;5.40;1.27;;;6.10;99.90;;;;;;5033650;28;20097;-74
2022/11/27 05:55:30;;;;;;;9.50;1.20;;;6.10;99.90;;;;;;5015884;28;20025;-74
2022/11/27 05:57:56;;;;;;;9.60;1.08;;;6.00;99.90;;;;;;5016215;28;20014;-74
2022/11/27 06:00:22;;;;;;;3.40;0.93;;;6.00;99.90;;;;;;5033734;28;20064;-74
2022/11/27 06:02:47;;;;;;;3.75;0.80;;;6.00;99.90;;;;;;5034321;28;20029;-74
2022/11/27 06:05:13;;;;;;;7.78;1.20;;;6.00;99.90;;;;;;5034048;28;20542;-74
2022/11/27 06:07:39;;;;;;;6.35;0.90;;;5.90;99.90;;;;;;5032832;28;20022;-74
2022/11/27 06:10:05;;;;;;;5.60;1.30;;;5.90;99.90;;;;;;5037192;28;20025;-74
2022/11/27 06:12:31;;;;;;;5.28;1.02;;;5.90;99.90;;;;;;5037999;28;20100;-74
2022/11/27 06:14:57;;;;;;;5.45;1.50;;;6.00;99.90;;;;;;5036545;28;20024;-74
2022/11/27 06:17:22;;;;;;;8.70;1.02;;;5.90;99.90;;;;;;5037318;28;20466;-74
2022/11/27 06:19:48;;;;;;;2.45;0.63;;;5.90;99.90;;;;;;5019655;28;20033;-74
2022/11/27 06:22:13;;;;;;;5.60;1.20;;;6.00;99.90;;;;;;5036672;28;20026;-74
2022/11/27 06:24:39;;;;;;;6.47;0.95;;;6.00;99.90;;;;;;5036929;28;20040;-74
2022/11/27 06:27:05;;;;;;;9.40;1.30;;;6.00;99.90;;;;;;5036081;28;20545;-74
2022/11/27 06:29:30;;;;;;;6.07;0.55;;;6.00;99.90;;;;;;5019388;28;20028;-74
2022/11/27 06:31:56;;;;;;;6.32;1.20;;;6.00;99.90;;;;;;5036101;28;20060;-74
2022/11/27 06:34:21;;;;;;;6.15;1.13;;;6.90;99.90;;;;;;5037206;28;20030;-74
2022/11/27 06:36:48;;;;;;;5.32;1.02;;;6.00;99.90;;;;;;5036264;28;20029;-74
2022/11/27 06:39:13;;;;;;;4.65;1.15;;;6.00;99.90;;;;;;5037334;28;20025;-74
2022/11/27 06:41:39;;;;;;;5.35;0.60;;;6.00;99.90;;;;;;5037104;28;20369;-74
2022/11/27 06:44:04;;;;;;;5.47;1.35;;;6.00;99.90;;;;;;5037632;28;20083;-74
2022/11/27 06:46:30;;;;;;;5.93;1.50;;;6.00;99.90;;;;;;5037026;28;20034;-74
2022/11/27 06:48:57;;;;;;;4.13;0.90;;;6.00;99.90;;;;;;5018666;28;20049;-74
2022/11/27 06:51:24;;;;;;;5.63;0.63;;;6.00;99.90;;;;;;5037237;28;20527;-73
2022/11/27 06:53:51;;;;;;;5.60;1.13;;;6.00;99.90;;;;;;5037418;28;20096;-74
2022/11/27 06:56:20;;;;;;;10.10;1.48;;;6.00;99.90;;;;;;5036889;28;20026;-73
2022/11/27 06:58:49;;;;;;;;;;;6.00;99.90;;;;;;5019424;28;20031;-73
2022/11/27 07:01:16;;;;;;;3.42;0.50;;;6.00;99.90;;;;;;5019202;28;19905;-73
2022/11/27 07:03:42;;;;;;;4.53;1.10;;;6.00;99.90;;;;;;5036877;28;20036;-73
2022/11/27 07:06:10;;;;;;;5.68;0.45;;;6.00;99.90;;;;;;5018980;28;20083;-74
2022/11/27 07:08:37;;;;;;;8.13;0.93;;;6.00;99.90;;;;;;5036699;28;20029;-73
2022/11/27 07:11:05;;;;;;;7.75;0.95;;;6.00;99.90;;;;;;5019323;28;20028;-73
2022/11/27 07:13:31;;;;;;;6.18;0.90;;;6.00;99.90;;;;;;5036390;28;20389;-74
2022/11/27 07:16:01;;;;;;;4.95;0.70;;;6.00;99.90;;;;;;5018800;28;20030;-74
2022/11/27 07:18:27;;;;;;;4.18;1.05;;;6.00;99.90;;;;;;5035760;28;20507;-73
2022/11/27 07:20:53;;;;;;;5.82;0.90;;;6.00;99.90;;;;;;5017319;28;20032;-74
2022/11/27 07:23:19;;;;;;;3.50;1.00;;;6.00;99.90;;;;;;5036157;28;20476;-74
2022/11/27 07:25:44;;;;;;;2.17;0.30;;;6.00;99.90;;;;;;5035968;28;20060;-74
2022/11/27 07:28:10;;;;;;;4.13;1.00;;;6.00;99.90;;;;;;5036155;28;20096;-74
2022/11/27 07:30:36;;;;;;;5.15;1.40;;;6.00;99.90;;;;;;5035714;28;20048;-74
2022/11/27 07:33:01;;;;;;;6.57;1.00;;;6.00;99.90;;;;;;5034610;28;20531;-74
2022/11/27 07:35:27;;;;;;;3.30;0.65;;;6.00;99.90;;;;;;5018219;28;20033;-74
2022/11/27 07:37:52;;;;;;;5.05;0.90;;;6.00;99.90;;;;;;5035879;28;20104;-74
2022/11/27 07:40:18;;;;;;;6.75;1.10;;;6.00;99.90;;;;;;5018447;28;20036;-74
2022/11/27 07:42:44;;;;;;;12.00;2.13;;;5.90;99.90;;;;;;5034588;28;20017;-74
2022/11/27 07:45:10;;;;;;;3.10;0.68;;;6.00;99.90;;;;;;5035284;28;20030;-74
2022/11/27 07:47:36;;;;;;;3.63;0.85;;;5.90;99.90;;;;;;5035600;28;20036;-74
2022/11/27 07:50:02;;;;;;;4.88;0.90;;;6.00;99.90;;;;;;5035693;28;20022;-74
2022/11/27 07:52:28;;;;;;;4.53;0.95;;;5.90;99.90;;;;;;5018414;28;20017;-74
2022/11/27 07:54:54;;;;;;;7.07;1.23;;;5.90;99.90;;;;;;5035694;28;20025;-74
2022/11/27 07:57:20;;;;;;;3.40;0.95;;;5.90;99.90;;;;;;5035417;28;20112;-74
2022/11/27 07:59:45;;;;;;;4.15;0.98;;;7.00;99.90;;;;;;5035180;28;20034;-74
2022/11/27 08:02:12;;;;;;;6.88;1.25;;;5.90;99.90;;;;;;5035926;28;20021;-74
2022/11/27 08:04:37;;;;;;;5.80;1.65;;;5.90;99.90;;;;;;5035082;28;20056;-74
2022/11/27 08:07:03;;;;;;;3.90;0.90;;;5.90;99.90;;;;;;5035600;28;20497;-74
2022/11/27 08:09:29;;;;;;;4.70;1.67;;;5.90;99.90;;;;;;5034134;28;20108;-74
2022/11/27 08:11:55;;;;;;;6.40;1.50;;;5.90;99.90;;;;;;5035665;28;20025;-74
2022/11/27 08:14:20;;;;;;;3.85;0.50;;;5.90;99.90;;;;;;5035353;28;20092;-74
2022/11/27 08:16:46;;;;;;;5.40;0.75;;;5.90;99.90;;;;;;5017060;28;20033;-74
2022/11/27 08:19:12;;;;;;;5.47;1.33;;;5.90;99.90;;;;;;5035237;28;20037;-74
2022/11/27 08:21:37;;;;;;;7.30;0.85;;;6.00;99.90;;;;;;5034855;28;20123;-74
2022/11/27 08:24:04;;;;;;;4.00;0.93;;;5.90;99.90;;;;;;5017426;28;20022;-74
2022/11/27 08:26:30;;;;;;;5.20;0.95;;;6.00;99.90;;;;;;5035103;28;20544;-74
2022/11/27 08:28:56;;;;;;;3.88;0.75;;;6.00;99.90;;;;;;5035189;28;20064;-74
2022/11/27 08:31:21;;;;;;;10.80;1.63;;;5.90;99.90;;;;;;5035040;28;20377;-74
2022/11/27 08:33:47;;;;;;;4.07;0.90;;;6.00;99.90;;;;;;5034937;28;20028;-74
2022/11/27 08:36:13;;;;;;;5.65;1.30;;;6.00;99.90;;;;;;5016990;28;20083;-74
2022/11/27 08:38:39;;;;;;;9.88;2.17;;;6.00;99.90;;;;;;5035569;28;20465;-75
2022/11/27 08:41:07;;;;;;;5.55;1.48;;;6.00;99.90;;;;;;5033540;28;20021;-74
2022/11/27 08:43:32;;;;;;;7.05;1.00;;;6.00;99.90;;;;;;5035170;28;20021;-74
2022/11/27 08:45:58;;;;;;;8.18;1.48;;;6.00;99.90;;;;;;5034908;28;20033;-74
2022/11/27 08:48:27;;;;;;;8.65;1.63;;;6.00;99.90;;;;;;5034556;28;20036;-74
2022/11/27 08:50:53;;;;;;;11.10;1.92;;;6.00;99.90;;;;;;5017176;28;20476;-74
2022/11/27 08:53:18;;;;;;;5.68;1.63;;;6.00;99.90;;;;;;5034758;28;20021;-74
2022/11/27 08:55:44;;;;;;;4.18;1.23;;;6.00;99.90;;;;;;5017039;28;20024;-74
2022/11/27 08:58:10;;;;;;;5.32;0.90;;;6.00;99.90;;;;;;5034996;28;20480;-74
2022/11/27 09:00:37;;;;;;;8.70;1.13;;;6.10;99.90;;;;;;5035929;28;20056;-74
2022/11/27 09:03:03;;;;;;;3.92;1.17;;;5.90;99.90;;;;;;5016831;28;20037;-74
2022/11/27 09:05:29;;;;;;;4.85;0.85;;;6.10;99.90;;;;;;5017798;28;20480;-74
2022/11/27 09:07:55;;;;;;;9.65;1.52;;;6.10;99.90;;;;;;5017084;28;20032;-74
2022/11/27 09:10:21;;;;;;;7.10;1.15;;;6.20;99.90;;;;;;5016904;28;20124;-74
2022/11/27 09:12:50;;;;;;;5.35;1.05;;;6.20;99.90;;;;;;5034796;28;20033;-74
2022/11/27 09:15:17;;;;;;;6.82;1.27;;;6.20;99.90;;;;;;5016868;28;20021;-74
2022/11/27 09:17:43;;;;;;;6.47;1.35;;;6.20;99.90;;;;;;5034674;28;20021;-74
2022/11/27 09:20:09;;;;;;;7.45;1.52;;;6.20;99.90;;;;;;5035181;28;20021;-74
2022/11/27 09:22:35;;;;;;;13.88;1.42;;;6.30;99.90;;;;;;5034782;28;20037;-74
2022/11/27 09:25:02;;;;;;;4.72;0.95;;;6.30;99.90;;;;;;5034124;28;20026;-74
2022/11/27 09:27:27;;;;;;;3.05;1.27;;;6.30;99.90;;;;;;5034461;28;20021;-74
2022/11/27 09:29:53;;;;;;;4.85;1.48;;;6.30;99.90;;;;;;5034506;28;20060;-74
2022/11/27 09:32:21;;;;;;;7.30;1.20;;;6.30;99.90;;;;;;5033996;28;20029;-78
2022/11/27 09:34:50;;;;;;;6.35;1.38;;;6.40;99.90;;;;;;5016016;28;20018;-77
2022/11/27 09:37:15;;;;;;;5.95;1.08;;;6.40;99.90;;;;;;5016292;28;20399;-77
2022/11/27 09:39:41;;;;;;;6.25;1.48;;;6.50;99.90;;;;;;5033969;28;20017;-77
2022/11/27 09:42:20;;;;;;;4.47;1.15;;;6.50;99.90;;;;;;5016502;28;20055;-77
2022/11/27 09:44:53;;;;;;;4.15;1.15;;;6.60;99.90;;;;;;5014697;28;20386;-77
2022/11/27 09:47:40;;;;;;;8.93;1.38;;;6.60;99.90;;;;;;5034172;28;20108;-77
2022/11/27 09:50:21;;;;;;;6.50;0.80;;;6.60;99.90;;;;;;5016177;28;20476;-77
2022/11/27 09:53:19;;;;;;;8.57;2.53;;;6.70;99.90;;;;;;5034515;28;20049;-77
2022/11/27 09:55:48;;;;;;;6.93;1.35;;;6.60;99.90;;;;;;5032892;28;20420;-77
2022/11/27 09:58:19;;;;;;;4.95;1.13;;;6.70;99.90;;;;;;5033814;28;20025;-77
2022/11/27 10:00:46;;;;;;;5.65;1.00;;;6.80;99.90;;;;;;5032095;28;20162;-77
2022/11/27 10:03:19;;;;;;;7.57;2.15;;;6.70;99.90;;;;;;5033521;28;20504;-77
2022/11/27 10:05:50;;;;;;;5.20;1.65;;;6.80;99.90;;;;;;5016053;28;20164;-74
2022/11/27 10:08:33;;;;;;;6.93;1.10;;;6.80;99.90;;;;;;5032349;28;20070;-77
2022/11/27 10:11:16;;;;;;;5.70;1.05;;;6.80;99.90;;;;;;5033616;28;20412;-77
2022/11/27 10:13:44;;;;;;;13.13;1.77;;;6.80;99.90;;;;;;5033549;28;20476;-77
2022/11/27 10:16:32;;;;;;;6.38;2.03;;;6.90;99.90;;;;;;5032112;28;20060;-78
2022/11/27 10:19:31;;;;;;;5.57;1.88;;;6.90;99.90;;;;;;5030002;28;20029;-78
2022/11/27 10:22:20;;;;;;;;;;;6.90;99.90;;;;;;5033765;28;20032;-77
2022/11/27 10:25:16;;;;;;;4.82;1.13;;;6.90;99.90;;;;;;5033686;28;19987;-77
2022/11/27 10:27:54;;;;;;;4.93;1.00;;;6.90;99.90;;;;;;5015679;28;20013;-77
2022/11/27 10:30:20;;;;;;;3.00;1.20;;;6.90;99.90;;;;;;5032076;28;20029;-74
2022/11/27 10:32:53;;;;;;;4.00;1.30;;;7.00;99.90;;;;;;5016412;28;20523;-74
2022/11/27 10:35:23;;;;;;;6.22;1.45;;;7.00;99.90;;;;;;5032083;28;20029;-76
2022/11/27 10:37:56;;;;;;;7.22;1.85;;;7.00;99.90;;;;;;5015530;28;20045;-76
2022/11/27 10:40:38;;;;;;;6.05;1.20;;;7.00;99.90;;;;;;5029542;28;20022;-76
2022/11/27 10:43:19;;;;;;;7.72;1.15;;;7.00;99.90;;;;;;5015763;28;20396;-76
2022/11/27 10:45:50;;;;;;;6.45;1.30;;;7.10;99.90;;;;;;5033659;28;20072;-76
2022/11/27 10:48:16;;;;;;;6.40;1.27;;;7.10;99.90;;;;;;5014827;28;20408;-76
2022/11/27 10:50:42;;;;;;;5.03;1.50;;;7.10;99.90;;;;;;5033494;28;20020;-76
2022/11/27 10:53:15;;;;;;;6.35;1.70;;;7.10;99.90;;;;;;5032174;28;20037;-76
2022/11/27 10:55:59;;;;;;;6.80;1.20;;;7.10;99.90;;;;;;5033476;28;20512;-76
2022/11/27 10:58:55;;;;;;;5.05;1.85;;;7.10;99.90;;;;;;5036381;28;20029;-77
2022/11/27 11:01:22;;;;;;;3.75;1.08;;;7.20;99.90;;;;;;5018594;28;20017;-76
2022/11/27 11:03:48;;;;;;;6.50;1.92;;;7.20;99.90;;;;;;5036562;28;20389;-76
2022/11/27 11:06:25;;;;;;;7.20;1.48;;;7.20;99.90;;;;;;5035943;28;20017;-76
2022/11/27 11:09:11;;;;;;;5.63;1.35;;;7.20;99.90;;;;;;5018870;28;20397;-76
2022/11/27 11:11:37;;;;;;;5.40;1.77;;;7.20;99.90;;;;;;5018507;28;20384;-75
2022/11/27 11:14:13;;;;;;;5.95;1.52;;;7.30;99.90;;;;;;5036271;28;20387;-76
2022/11/27 11:16:42;;;;;;;7.18;1.10;;;7.40;99.90;;;;;;5034619;28;20029;-76
2022/11/27 11:19:30;;;;;;;5.80;1.15;;;7.40;99.90;;;;;;5036627;28;20025;-75
2022/11/27 11:21:58;;;;;;;4.93;1.40;;;7.40;99.90;;;;;;5019034;28;20120;-75
2022/11/27 11:24:32;;;;;;;7.63;1.77;;;7.50;99.90;;;;;;5018766;28;20060;-75
2022/11/27 11:27:10;;;;;;;8.73;1.40;;;7.50;99.90;;;;;;5018396;28;20550;-75
2022/11/27 11:29:45;;;;;;;6.38;2.20;;;7.60;99.90;;;;;;5018296;28;20029;-75
2022/11/27 11:32:14;;;;;;;6.47;1.60;;;7.70;99.90;;;;;;5033842;28;20107;-75
2022/11/27 11:34:41;;;;;;;;;;;7.60;99.90;;;;;;5018630;28;20022;-75
2022/11/27 11:37:22;;;;;;;11.80;1.95;;;7.70;99.90;;;;;;5035872;28;19911;-75
2022/11/27 11:40:02;;;;;;;7.45;1.63;;;7.70;99.90;;;;;;5018392;28;20461;-75
2022/11/27 11:42:31;;;;;;;3.78;1.15;;;7.80;99.90;;;;;;5036646;28;20113;-74
2022/11/27 11:45:25;;;;;;;4.82;1.23;;;7.80;99.90;;;;;;5017584;28;20057;-74
2022/11/27 11:47:57;;;;;;;8.60;1.67;;;7.80;99.90;;;;;;5035005;28;20050;-74
2022/11/27 11:50:28;;;;;;;2.25;0.80;;;7.80;99.90;;;;;;5035860;28;20075;-74
2022/11/27 11:53:21;;;;;;;6.22;1.42;;;7.80;99.90;;;;;;5035449;28;20033;-74
2022/11/27 11:55:49;;;;;;;9.48;2.55;;;7.80;99.90;;;;;;5035319;28;20075;-75
2022/11/27 11:58:52;;;;;;;8.52;1.52;;;7.80;99.90;;;;;;5034819;28;20057;-74
2022/11/27 12:01:17;;;;;;;4.97;1.55;;;7.90;99.90;;;;;;5015582;28;20030;-74
2022/11/27 12:04:15;;;;;;;5.13;1.58;;;8.90;99.90;;;;;;5014076;28;20041;-74
2022/11/27 12:06:50;;;;;;;11.00;2.35;;;7.90;99.90;;;;;;5006887;28;20030;-75
2022/11/27 12:09:40;;;;;;;8.63;1.92;;;8.00;99.90;;;;;;5016022;28;20018;-73
2022/11/27 12:12:14;;;;;;;5.95;1.65;;;7.90;99.90;;;;;;5015460;28;20029;-73
2022/11/27 12:14:49;;;;;;;7.85;1.50;;;8.00;99.90;;;;;;5015958;28;20022;-74
2022/11/27 12:17:38;;;;;;;5.45;1.38;;;8.00;99.90;;;;;;5015430;28;20034;-74
2022/11/27 12:20:16;;;;;;;6.20;1.85;;;8.10;99.90;;;;;;5014580;28;20030;-73
2022/11/27 12:23:05;;;;;;;4.82;1.65;;;8.10;99.90;;;;;;5015936;28;20093;-73
2022/11/27 12:25:43;;;;;;;5.50;2.25;;;8.20;99.90;;;;;;5015316;28;20026;-73
2022/11/27 12:28:26;;;;;;;6.95;1.95;;;8.20;99.90;;;;;;5014059;28;20053;-73
2022/11/27 12:31:02;;;;;;;8.23;2.40;;;8.10;99.90;;;;;;5015654;28;20105;-73
2022/11/27 12:33:46;;;;;;;6.13;2.28;;;8.10;99.90;;;;;;5015888;28;20093;-73
2022/11/27 12:36:19;;;;;;;5.20;1.58;;;8.10;99.90;;;;;;5015184;28;20037;-73
2022/11/27 12:39:00;;;;;;;7.35;1.48;;;8.10;99.90;;;;;;5013853;28;20514;-73
2022/11/27 12:41:31;;;;;;;6.40;1.58;;;8.10;99.90;;;;;;5015656;28;20033;-73
2022/11/27 12:43:59;;;;;;;4.18;2.00;;;8.20;99.90;;;;;;5013632;28;20030;-73
2022/11/27 12:46:39;;;;;;;6.13;2.00;;;8.20;99.90;;;;;;5014839;28;20048;-73
2022/11/27 12:49:18;;;;;;;5.75;1.80;;;8.10;99.90;;;;;;5058727;23;20072;-75
2022/11/27 12:51:53;;;;;;;9.50;2.22;;;8.20;99.90;;;;;;5036535;28;20455;-75
2022/11/27 12:54:31;;;;;;;10.30;3.40;;;8.00;99.90;;;;;;5036808;28;20017;-75
2022/11/27 12:57:01;;;;;;;8.68;1.95;;;8.10;99.90;;;;;;5034483;28;20037;-75
2022/11/27 12:59:35;;;;;;;6.80;2.75;;;8.10;99.90;;;;;;5034483;28;20554;-75
2022/11/27 13:02:35;;;;;;;8.63;2.70;;;8.10;99.90;;;;;;5016343;28;20013;-75
2022/11/27 13:05:06;;;;;;;7.25;2.55;;;8.10;99.90;;;;;;5034165;28;20025;-75
2022/11/27 13:07:42;;;;;;;4.78;2.03;;;8.10;99.90;;;;;;5034056;28;20049;-75
2022/11/27 13:10:10;;;;;;;7.78;2.70;;;8.00;99.90;;;;;;5034240;28;20021;-75
2022/11/27 13:12:49;;;;;;;7.55;2.20;;;8.00;99.90;;;;;;5016689;28;20036;-75
2022/11/27 13:15:30;;;;;;;8.73;2.70;;;8.00;99.90;;;;;;5034313;28;20052;-75
2022/11/27 13:18:05;;;;;;;7.68;2.28;;;8.00;99.90;;;;;;5032770;28;20051;-75